Etusivu
METAR-TAF:

METAR-TAF

Lentoasemat :

Varadero, Kuuba

Leveyspiiri: 23-08N, Pituuspiiri: 081-17W, korkeus merenpinnasta: 3 m

Tämänhetkinen sää

Tämä raportti tehtiin 25 minuuttia sitten, kello 01.50 UTC
Tuuli 1 kn eri suunnista
Lämpötila 18°C
Kosteus 94%
Ilmanpaine 1017 hPa
Näkyvyys: 9000 m
Muutamia pilviä 3000 ft:n korkeudessa

METAR: MUVR 200150Z VRB01KT 9000 FEW030 18/17 Q1017

Aika: 21:15 (02:15 UTC)

Sääennuste

Tämä raportti tehtiin 3 tuntia ja 15 minuuttia sitten, kello 23.00 UTC
Ennuste voimassa 20. päivästä klo 00 UTC - 20. päivään klo 24 UTC
Tuuli 3 kn eri suunnista
Näkyvyys: 9000 m
Muutamia pilviä 2000 ft:n korkeudessa
Tulossa
20. päivästä klo 15 UTC - 20. päivään klo 17 UTC
Tuuli 10 kn pohjoisesta
Hajanaisia pilviä 2000 ft:n korkeudessa

TAF: MUVR 192300Z 2000/2024 VRB03KT 9000 FEW020 BECMG 2015/2017 36010KT SCT020

Säähavainnot ja -ennusteet yli 4000 lentoasemalta (METAR- ja TAF-raportit).

Käytössä olevat sääasemat on merkitty karttaan keltaisilla ja punaisilla pisteillä.

Aseta hiiri pisteen päälle nähdäksesi sääaseman nimen.

Klikkaa sitten nähdäksesi säähavainnot ja -ennusteet.

Kartan vaihtaminen: klikkaa mustalla rastilla varustettuja vihreitä pisteitä, niin voit zoomata sisään; viivalla varustettua vihreää pistettä, niin voit zoomata ulos tai vihreitä nuolia, niin pääset viereisille kartoille.


METAR-TAF: